Terminal Aerodrome Forecast
Issued by NWS

Home | Current Version | Previous Version | Text Only | Print | Product List | Glossary Off
Versions: 1 2 3 4 5 6 7 8 9 10 11 12 13 14 15 16 17 18 19 20 21

000
FTUS43 KABR 010200 AAB
TAFATY
TAF AMD
KATY 010210Z 0102/0124 16011KT P6SM FEW100 SCT150 BKN250
     FM010700 33011KT P6SM VCSH SCT060 BKN080 OVC110
      TEMPO 0107/0111 34015G24KT -SHRA FEW040 BKN060 OVC080
     FM011100 33010KT P6SM BKN035 OVC060
     FM011500 32006KT P6SM SKC=

USA.gov is the U.S. government's official web portal to all federal, state and local government web resources and services.